Time;durP1;ratioP1;P1;durP2;ratioP2;P2;SDS_P1;SDS_P2;PMS_P1;PMS_P2;Temp;Humidity;BMP_temperature;BMP_pressure;BME280_temperature;BME280_humidity;BME280_pressure;Samples;Min_cycle;Max_cycle;Signal;HPM_P1;HPM_P2
2023/10/11 00:03:58;;;;;;;7.40;2.50;;;;;;;13.60;64.88;100093.63;10388196;28;20130;-65
2023/10/11 00:09:04;;;;;;;9.43;3.53;;;;;;;13.58;65.18;100085.00;10384344;28;20132;-65
2023/10/11 00:14:07;;;;;;;4.15;2.38;;;;;;;13.42;65.13;100093.13;10387763;28;20077;-64
2023/10/11 00:19:10;;;;;;;7.45;3.15;;;;;;;13.44;65.42;100079.88;10382963;28;20568;-64
2023/10/11 00:24:12;;;;;;;6.65;2.70;;;;;;;13.43;65.31;100083.47;10386981;28;20596;-64
2023/10/11 00:29:14;;;;;;;10.40;3.20;;;;;;;13.40;65.35;100071.34;10384429;28;20068;-64
2023/10/11 00:34:16;;;;;;;5.82;2.88;;;;;;;13.35;65.23;100070.00;10376678;28;20045;-64
2023/10/11 00:39:18;;;;;;;6.75;2.90;;;;;;;13.33;65.26;100064.00;10372653;28;20057;-65
2023/10/11 00:44:22;;;;;;;6.00;2.75;;;;;;;13.22;65.33;100064.72;10372805;28;20049;-65
2023/10/11 00:49:36;;;;;;;6.35;2.83;;;;;;;13.11;65.86;100062.00;10363887;28;20053;-65
2023/10/11 00:54:43;;;;;;;8.63;3.30;;;;;;;13.06;65.68;100053.59;10373646;28;20045;-65
2023/10/11 00:59:45;;;;;;;5.78;2.90;;;;;;;12.98;65.59;100060.31;10384258;28;20052;-65
2023/10/11 01:04:47;;;;;;;6.40;3.15;;;;;;;12.78;65.80;100062.47;10379529;28;20081;-65
2023/10/11 01:09:50;;;;;;;6.05;3.13;;;;;;;12.81;66.11;100064.06;10381957;28;20413;-65
2023/10/11 01:14:58;;;;;;;6.13;3.45;;;;;;;12.76;65.98;100061.72;10377942;28;20485;-65
2023/10/11 01:20:04;;;;;;;8.20;3.17;;;;;;;12.74;65.99;100062.81;10382171;28;20460;-65
2023/10/11 01:25:08;;;;;;;7.82;2.95;;;;;;;12.61;66.38;100067.16;10376089;28;20052;-65
2023/10/11 01:30:10;;;;;;;7.32;2.85;;;;;;;12.65;66.25;100061.63;10378264;28;20852;-65
2023/10/11 01:35:13;;;;;;;7.78;2.70;;;;;;;12.65;66.23;100051.13;10378737;28;20144;-66
2023/10/11 01:40:21;;;;;;;5.28;2.50;;;;;;;12.68;66.13;100037.78;10379287;28;20050;-66
2023/10/11 01:45:23;;;;;;;7.53;2.50;;;;;;;12.50;65.69;100036.38;10377053;28;20060;-66
2023/10/11 01:50:25;;;;;;;15.82;3.65;;;;;;;12.24;66.23;100036.38;10371648;28;20655;-66
2023/10/11 01:55:28;;;;;;;4.82;2.33;;;;;;;12.24;66.63;100031.13;10377507;28;20045;-66
2023/10/11 02:00:32;;;;;;;5.95;2.40;;;;;;;12.34;66.46;100029.63;10378100;28;20060;-65
2023/10/11 02:05:34;;;;;;;6.25;2.85;;;;;;;12.42;66.27;100022.94;10388125;28;20054;-65
2023/10/11 02:10:36;;;;;;;6.50;2.60;;;;;;;12.45;66.13;100019.28;10378353;28;20060;-66
2023/10/11 02:15:40;;;;;;;4.72;2.33;;;;;;;12.37;66.19;100014.53;10388146;28;20911;-66
2023/10/11 02:20:46;;;;;;;5.15;2.20;;;;;;;12.21;66.63;100020.84;10386296;28;20756;-66
2023/10/11 02:25:48;;;;;;;5.20;2.47;;;;;;;12.22;66.47;100019.91;10387870;28;20055;-66
2023/10/11 02:30:50;;;;;;;4.90;2.42;;;;;;;12.05;66.62;100019.22;10384561;28;21104;-65
2023/10/11 02:35:56;;;;;;;5.68;2.55;;;;;;;12.13;66.67;100034.44;10388640;28;20045;-65
2023/10/11 02:40:58;;;;;;;6.05;2.70;;;;;;;12.13;66.39;100026.56;10384998;28;20759;-65
2023/10/11 02:46:03;;;;;;;4.65;2.03;;;;;;;12.12;66.49;100017.03;10384284;28;20522;-65
2023/10/11 02:51:13;;;;;;;4.50;2.45;;;;;;;12.12;66.53;100019.66;10384180;28;20045;-65
2023/10/11 02:56:15;;;;;;;9.40;1.80;;;;;;;12.10;66.72;100011.91;10387650;28;20060;-65
2023/10/11 03:01:20;;;;;;;6.70;2.35;;;;;;;11.77;66.66;100010.59;10381767;28;20049;-64
2023/10/11 03:06:27;;;;;;;5.90;2.25;;;;;;;11.77;67.24;100006.19;10373769;28;20564;-65
2023/10/11 03:11:29;;;;;;;6.05;3.08;;;;;;;11.79;66.75;99998.22;10374632;28;20061;-64
2023/10/11 03:16:32;;;;;;;3.55;2.00;;;;;;;11.67;66.84;100005.09;10380606;28;20053;-64
2023/10/11 03:21:34;;;;;;;8.30;2.35;;;;;;;11.72;66.96;99991.72;10375735;28;20049;-65
2023/10/11 03:26:38;;;;;;;6.82;2.35;;;;;;;11.68;66.65;99995.47;10382719;28;20037;-65
2023/10/11 03:31:40;;;;;;;4.82;2.38;;;;;;;11.59;66.35;99991.63;10379453;28;20068;-65
2023/10/11 03:36:43;;;;;;;32.60;3.85;;;;;;;11.29;66.61;99983.91;10381152;28;20049;-64
2023/10/11 03:41:45;;;;;;;16.90;3.75;;;;;;;11.32;67.27;99987.28;10378995;28;20053;-65
2023/10/11 03:46:47;;;;;;;6.00;2.65;;;;;;;11.45;67.24;99982.94;10378969;28;20047;-65
2023/10/11 03:51:50;;;;;;;6.10;2.92;;;;;;;11.58;66.93;99973.41;10377636;28;20049;-66
2023/10/11 03:56:53;;;;;;;11.30;3.10;;;;;;;11.47;66.52;99971.44;10384863;28;20364;-66
2023/10/11 04:01:58;;;;;;;15.88;3.20;;;;;;;11.20;66.78;99976.63;10385623;28;20511;-65
2023/10/11 04:07:02;;;;;;;5.55;2.70;;;;;;;11.17;67.10;99979.41;10388445;28;20060;-65
2023/10/11 04:12:04;;;;;;;5.90;2.63;;;;;;;11.28;67.03;99977.00;10384827;28;20045;-65
2023/10/11 04:22:25;;;;;;;7.35;3.22;;;;;;;11.32;66.74;99984.66;10380151;28;20052;-65
2023/10/11 04:37:44;;;;;;;40.03;4.13;;;;;;;11.00;66.96;100000.53;10380444;28;20889;-65
2023/10/11 04:43:04;;;;;;;20.17;2.85;;;;;;;10.97;67.49;100003.31;10382049;28;20409;-65
2023/10/11 04:48:06;;;;;;;6.83;2.63;;;;;;;11.09;67.30;100004.41;10383801;28;20052;-66
2023/10/11 04:53:08;;;;;;;62.55;4.70;;;;;;;10.96;67.08;100008.66;10380240;28;20144;-66
2023/10/11 04:58:21;;;;;;;5.93;3.08;;;;;;;10.85;67.22;100013.66;10379909;28;20133;-66
2023/10/11 05:03:29;;;;;;;5.53;2.90;;;;;;;10.90;67.31;100009.84;10379808;28;20033;-65
2023/10/11 05:14:28;;;;;;;34.40;4.78;;;;;;;10.82;66.72;100014.72;10375554;28;20987;-66
2023/10/11 05:19:35;;;;;;;16.15;3.65;;;;;;;10.69;67.01;100029.44;10385843;28;20053;-66
2023/10/11 05:50:58;;;;;;;62.20;6.10;;;;;;;10.47;67.49;100002.84;10359786;28;20072;-65
2023/10/11 05:56:00;;;;;;;17.05;3.67;;;;;;;10.47;67.72;100008.06;10382492;28;20111;-65
2023/10/11 06:01:06;;;;;;;7.40;2.85;;;;;;;10.54;67.73;100005.97;10377658;28;20037;-64
2023/10/11 06:06:23;;;;;;;9.65;3.10;;;;;;;10.65;67.60;100001.78;10379313;28;20045;-65
2023/10/11 06:11:36;;;;;;;23.98;3.05;;;;;;;10.46;67.49;100022.09;10372928;28;20042;-66
2023/10/11 06:16:38;;;;;;;6.90;2.60;;;;;;;10.41;67.48;100024.97;10381817;28;20041;-66
2023/10/11 06:21:56;;;;;;;42.47;3.83;;;;;;;10.65;67.47;100025.31;10374749;28;20049;-66
2023/10/11 06:27:11;;;;;;;5.35;2.53;;;;;;;10.83;67.38;100011.16;10379429;28;20041;-65
2023/10/11 06:32:13;;;;;;;7.93;2.72;;;;;;;10.94;66.93;100013.97;10370438;28;20061;-66
2023/10/11 06:37:24;;;;;;;4.80;1.83;;;;;;;11.04;67.01;100022.13;10368408;28;20426;-65
2023/10/11 06:42:31;;;;;;;4.75;2.45;;;;;;;11.32;66.60;100018.72;10365926;28;20113;-65
2023/10/11 06:47:33;;;;;;;3.95;2.20;;;;;;;11.62;66.45;100014.19;10376361;28;20506;-65
2023/10/11 06:52:44;;;;;;;15.15;2.72;;;;;;;11.61;66.05;100025.59;10370878;28;20039;-65
2023/10/11 06:57:51;;;;;;;5.13;2.50;;;;;;;11.89;65.93;100025.53;10379225;28;20053;-65
2023/10/11 07:03:07;;;;;;;9.38;3.53;;;;;;;12.12;65.54;100028.38;10366950;28;20052;-65
2023/10/11 07:08:10;;;;;;;10.77;2.95;;;;;;;12.00;65.71;100041.41;10375756;28;20046;-65
2023/10/11 07:13:13;;;;;;;5.07;2.50;;;;;;;12.29;65.67;100032.56;10370705;28;20417;-65
2023/10/11 07:18:25;;;;;;;10.63;4.97;;;;;;;12.59;65.14;100022.66;10378407;28;20179;-65
2023/10/11 07:23:35;;;;;;;13.85;4.60;;;;;;;12.67;65.10;100020.38;10367588;28;20049;-65
2023/10/11 07:28:37;;;;;;;14.80;3.97;;;;;;;12.80;64.64;100031.72;10374053;28;20033;-65
2023/10/11 07:33:40;;;;;;;19.77;5.30;;;;;;;13.05;64.32;100025.66;10383003;28;20037;-64
2023/10/11 07:38:46;;;;;;;16.50;4.28;;;;;;;13.01;64.89;100034.69;10381437;28;20063;-65
2023/10/11 07:43:48;;;;;;;6.95;3.50;;;;;;;13.39;64.26;100047.81;10370627;28;20037;-65
2023/10/11 07:49:01;;;;;;;10.30;3.33;;;;;;;13.79;63.93;100033.59;10382922;28;20025;-66
2023/10/11 07:54:06;;;;;;;8.88;3.08;;;;;;;14.07;63.75;100035.06;10365487;28;20057;-64
2023/10/11 07:59:09;;;;;;;7.40;2.92;;;;;;;14.37;63.66;100036.28;10378334;28;20045;-65
2023/10/11 08:04:21;;;;;;;5.25;2.75;;;;;;;14.71;63.13;100025.94;10377269;28;20045;-65
2023/10/11 08:09:25;;;;;;;12.05;3.17;;;;;;;15.21;62.42;100015.00;10379828;28;20168;-65
2023/10/11 08:14:32;;;;;;;11.68;3.22;;;;;;;15.56;61.95;99999.94;10381557;28;20525;-65
2023/10/11 08:19:34;;;;;;;7.50;3.55;;;;;;;15.78;61.70;99991.16;10374753;28;20061;-65
2023/10/11 08:24:46;;;;;;;6.20;2.90;;;;;;;16.03;61.22;99998.78;10374770;28;20050;-66
2023/10/11 08:29:53;;;;;;;7.00;2.80;;;;;;;16.54;60.54;99993.69;10381152;28;20253;-66
2023/10/11 08:34:58;;;;;;;6.20;2.70;;;;;;;16.52;60.72;99992.97;10381884;28;20041;-66
2023/10/11 08:40:10;;;;;;;6.57;2.90;;;;;;;16.78;60.69;100004.81;10382451;28;20041;-66
2023/10/11 08:45:14;;;;;;;10.23;3.10;;;;;;;17.07;59.83;99991.78;10379728;28;20053;-66
2023/10/11 08:50:18;;;;;;;5.70;3.13;;;;;;;17.39;58.79;99982.78;10383431;28;20126;-66
2023/10/11 08:55:24;;;;;;;7.35;3.38;;;;;;;17.74;58.42;99969.97;10380609;28;20051;-66
2023/10/11 09:00:29;;;;;;;8.48;2.80;;;;;;;18.03;58.34;99964.72;10380525;28;20140;-67
2023/10/11 09:05:43;;;;;;;14.73;4.88;;;;;;;18.18;57.12;99946.63;10384303;28;20449;-66
2023/10/11 09:10:49;;;;;;;5.32;2.65;;;;;;;18.05;58.37;99951.34;10380586;28;20050;-68
2023/10/11 09:15:54;;;;;;;7.53;2.92;;;;;;;17.84;58.68;99954.94;10385336;28;20044;-68
2023/10/11 09:21:08;;;;;;;7.60;2.85;;;;;;;17.98;58.29;99948.41;10378524;28;20041;-66
2023/10/11 09:26:12;;;;;;;5.78;2.85;;;;;;;18.26;57.38;99944.16;10385084;28;20375;-66
2023/10/11 09:31:21;;;;;;;4.43;2.50;;;;;;;18.25;57.36;99942.47;10377488;28;20127;-66
2023/10/11 09:36:25;;;;;;;5.20;2.40;;;;;;;18.53;57.36;99944.25;10385858;28;20053;-66
2023/10/11 09:41:38;;;;;;;9.68;3.00;;;;;;;18.61;56.96;99947.00;10378442;28;20038;-66
2023/10/11 09:46:45;;;;;;;8.40;3.08;;;;;;;18.74;56.67;99939.59;10386070;28;20309;-66
2023/10/11 09:51:47;;;;;;;7.20;2.88;;;;;;;18.83;56.61;99944.03;10376086;28;20053;-66
2023/10/11 09:57:08;;;;;;;7.43;2.97;;;;;;;19.02;56.28;99938.72;10376648;28;20053;-67
2023/10/11 10:02:21;;;;;;;7.53;3.17;;;;;;;19.21;55.40;99941.31;10375894;28;20124;-67
2023/10/11 10:07:42;;;;;;;5.60;2.63;;;;;;;19.51;55.09;99937.50;10383161;28;20529;-67
2023/10/11 10:13:09;;;;;;;12.45;3.60;;;;;;;20.06;55.03;99938.28;10372306;28;20092;-67
2023/10/11 10:18:14;;;;;;;10.13;2.58;;;;;;;20.56;54.40;99927.94;10382121;28;20061;-68
2023/10/11 10:23:16;;;;;;;5.40;2.72;;;;;;;20.91;54.60;99928.69;10366299;28;20064;-67
2023/10/11 10:28:39;;;;;;;7.50;2.28;;;;;;;21.13;51.45;99926.47;10383099;28;20067;-67
2023/10/11 10:33:42;;;;;;;8.55;2.40;;;;;;;21.37;51.72;99911.50;10369065;28;20061;-68
2023/10/11 10:38:59;;;;;;;5.53;2.22;;;;;;;21.57;47.54;99914.69;10375311;28;20270;-67
2023/10/11 10:44:18;;;;;;;3.40;1.83;;;;;;;21.69;46.24;99916.06;10372912;28;20049;-67
2023/10/11 10:49:42;;;;;;;5.72;1.92;;;;;;;21.87;44.84;99916.75;10381437;28;20042;-67
2023/10/11 10:55:14;;;;;;;6.32;2.45;;;;;;;21.97;43.73;99913.94;10358225;28;20048;-68
2023/10/11 11:00:23;;;;;;;5.00;2.05;;;;;;;22.19;42.56;99892.84;10365379;28;20057;-67
2023/10/11 11:05:29;;;;;;;4.50;1.98;;;;;;;22.28;43.46;99894.53;10376704;28;20057;-67
2023/10/11 11:10:33;;;;;;;4.05;2.10;;;;;;;22.29;42.39;99882.03;10382977;28;20049;-67
2023/10/11 11:15:36;;;;;;;5.05;2.20;;;;;;;22.48;41.56;99882.50;10388347;28;20045;-67
2023/10/11 11:20:41;;;;;;;7.78;1.70;;;;;;;22.60;39.11;99870.50;10381756;28;20080;-67
2023/10/11 11:25:52;;;;;;;7.07;2.05;;;;;;;22.64;37.81;99877.16;10389167;28;21015;-67
2023/10/11 11:30:55;;;;;;;9.45;2.00;;;;;;;22.86;39.17;99872.13;10382240;28;20049;-67
2023/10/11 11:35:59;;;;;;;6.80;1.95;;;;;;;22.88;37.70;99870.94;10388016;28;20054;-67
2023/10/11 11:41:04;;;;;;;5.47;2.00;;;;;;;23.15;37.74;99861.66;10378182;28;20045;-67
2023/10/11 11:46:19;;;;;;;7.07;2.25;;;;;;;23.25;35.64;99855.13;10387651;28;20045;-67
2023/10/11 11:51:21;;;;;;;8.00;1.95;;;;;;;23.41;36.88;99854.25;10376409;28;20047;-67
2023/10/11 11:56:23;;;;;;;5.70;2.20;;;;;;;23.41;36.16;99841.72;10379434;28;20042;-68
2023/10/11 12:01:26;;;;;;;5.13;1.90;;;;;;;23.44;35.91;99846.72;10376112;28;20504;-67
2023/10/11 12:06:34;;;;;;;6.35;1.75;;;;;;;23.47;35.49;99841.00;10385729;28;20108;-67
2023/10/11 12:11:37;;;;;;;4.70;2.00;;;;;;;23.60;35.27;99843.09;10380413;28;20379;-66
2023/10/11 12:16:42;;;;;;;5.88;2.08;;;;;;;23.65;34.72;99829.22;10384909;28;20041;-67
2023/10/11 12:21:45;;;;;;;7.05;2.33;;;;;;;23.68;34.82;99821.69;10372874;28;20151;-68
2023/10/11 12:26:46;;;;;;;6.45;2.30;;;;;;;23.81;34.68;99818.44;10386028;28;20907;-67
2023/10/11 12:31:48;;;;;;;4.40;1.75;;;;;;;23.86;34.33;99814.19;10379360;28;20285;-66
2023/10/11 12:36:55;;;;;;;7.25;2.30;;;;;;;23.93;34.10;99814.31;10386479;28;20690;-66
2023/10/11 12:41:59;;;;;;;6.22;1.90;;;;;;;23.95;33.79;99812.31;10378712;28;20037;-67
2023/10/11 12:47:01;;;;;;;3.88;1.67;;;;;;;24.04;34.17;99801.34;10381926;28;20041;-67
2023/10/11 12:52:05;;;;;;;5.35;1.80;;;;;;;24.00;33.97;99810.75;10374903;28;20049;-67
2023/10/11 12:57:08;;;;;;;8.07;2.17;;;;;;;24.06;33.07;99804.69;10379830;28;20033;-67
2023/10/11 13:02:20;;;;;;;6.50;2.35;;;;;;;24.08;33.77;99805.34;10403025;28;20076;-67
2023/10/11 13:07:26;;;;;;;5.68;1.90;;;;;;;24.05;34.08;99792.34;10383599;28;20068;-67
2023/10/11 13:12:37;;;;;;;5.60;2.03;;;;;;;24.04;33.54;99789.84;10372232;28;20536;-67
2023/10/11 13:17:41;;;;;;;8.70;2.10;;;;;;;24.03;33.93;99782.84;10385003;28;20057;-67
2023/10/11 13:22:44;;;;;;;8.48;2.00;;;;;;;24.01;33.43;99782.19;10378988;28;20041;-67
2023/10/11 13:27:46;;;;;;;7.93;2.30;;;;;;;24.02;34.10;99778.53;10383640;28;20301;-67
2023/10/11 13:32:57;;;;;;;3.28;1.88;;;;;;;24.06;33.93;99766.47;10374794;28;20167;-67
2023/10/11 13:38:04;;;;;;;7.32;2.08;;;;;;;24.09;33.67;99771.47;10382892;28;20060;-67
2023/10/11 13:43:08;;;;;;;6.78;1.98;;;;;;;24.14;34.11;99772.56;10370280;28;20156;-68
2023/10/11 13:48:11;;;;;;;8.95;2.55;;;;;;;23.96;33.94;99764.03;10376612;28;20816;-67
2023/10/11 13:53:15;;;;;;;10.95;1.95;;;;;;;24.02;33.93;99763.31;10359781;28;20069;-68
2023/10/11 13:58:19;;;;;;;7.05;2.20;;;;;;;23.92;34.11;99767.25;10380998;28;20076;-67
2023/10/11 14:08:30;;;;;;;5.07;1.98;;;;;;;24.04;34.41;99739.09;10364034;28;20130;-67
2023/10/11 14:13:33;;;;;;;9.25;2.20;;;;;;;23.91;34.43;99729.03;10373569;28;20041;-67
2023/10/11 14:18:38;;;;;;;6.70;2.22;;;;;;;23.95;34.44;99730.31;10378873;28;20048;-68
2023/10/11 14:23:44;;;;;;;6.82;2.13;;;;;;;23.98;34.80;99726.47;10375112;28;20045;-66
2023/10/11 14:28:47;;;;;;;4.28;1.80;;;;;;;23.92;34.89;99725.34;10381231;28;20410;-66
2023/10/11 14:33:49;;;;;;;8.57;2.13;;;;;;;23.99;35.06;99712.91;10371330;28;20638;-67
2023/10/11 14:38:52;;;;;;;4.63;1.80;;;;;;;24.02;35.45;99714.41;10381145;28;20045;-67
2023/10/11 14:43:54;;;;;;;7.95;2.15;;;;;;;23.90;35.44;99716.66;10373432;28;20476;-66
2023/10/11 14:48:56;;;;;;;4.07;1.67;;;;;;;23.98;35.59;99719.25;10381417;28;20052;-67
2023/10/11 14:53:58;;;;;;;6.28;1.77;;;;;;;23.93;35.63;99715.50;10372385;28;20038;-67
2023/10/11 14:59:01;;;;;;;4.47;1.90;;;;;;;23.97;36.03;99704.25;10380366;28;20462;-67
2023/10/11 15:04:10;;;;;;;4.00;1.80;;;;;;;23.82;36.01;99700.72;10369050;28;20042;-67
2023/10/11 15:09:13;;;;;;;;;;;;;;;23.49;36.62;99704.72;10381580;28;20417;-67
2023/10/11 15:14:15;;;;;;;6.90;2.40;;;;;;;23.36;37.27;99701.78;10373372;28;19964;-66
2023/10/11 15:19:19;;;;;;;5.03;2.15;;;;;;;23.30;37.52;99706.00;10378271;28;20116;-67
2023/10/11 15:24:23;;;;;;;7.88;2.05;;;;;;;23.35;37.74;99703.63;10369744;28;20057;-66
2023/10/11 15:29:25;;;;;;;10.30;2.67;;;;;;;23.31;37.93;99698.81;10378509;28;20611;-67
2023/10/11 15:34:27;;;;;;;3.95;1.75;;;;;;;23.16;38.21;99697.94;10362411;28;20045;-67
2023/10/11 15:39:29;;;;;;;4.43;2.00;;;;;;;23.05;38.87;99695.66;10380266;28;20046;-66
2023/10/11 15:44:34;;;;;;;6.05;1.98;;;;;;;22.83;39.06;99699.13;10371190;28;20053;-67
2023/10/11 15:49:36;;;;;;;5.88;2.53;;;;;;;22.70;39.26;99697.84;10378876;28;20045;-67
2023/10/11 15:54:38;;;;;;;4.57;2.08;;;;;;;22.58;39.55;99701.06;10378092;28;20042;-67
2023/10/11 15:59:40;;;;;;;7.25;2.00;;;;;;;22.45;40.13;99716.78;10378961;28;20245;-66
2023/10/11 16:04:42;;;;;;;7.40;2.03;;;;;;;22.36;40.31;99712.47;10371569;28;20636;-66
2023/10/11 16:09:44;;;;;;;7.00;2.05;;;;;;;22.30;40.73;99715.84;10383214;28;20065;-66
2023/10/11 16:14:48;;;;;;;4.70;2.10;;;;;;;22.16;41.04;99714.72;10374181;28;20053;-66
2023/10/11 16:19:49;;;;;;;4.72;2.30;;;;;;;21.95;41.67;99711.72;10385917;28;20045;-66
2023/10/11 16:24:51;;;;;;;7.03;2.10;;;;;;;21.79;42.20;99707.28;10378945;28;20054;-66
2023/10/11 16:29:55;;;;;;;5.85;2.10;;;;;;;21.68;42.36;99701.47;10385092;28;20399;-66
2023/10/11 16:34:57;;;;;;;5.72;2.30;;;;;;;21.58;42.82;99708.78;10374591;28;20038;-66
2023/10/11 16:39:59;;;;;;;7.90;2.10;;;;;;;21.36;43.63;99702.28;10382783;28;20493;-66
2023/10/11 16:45:02;;;;;;;5.75;2.40;;;;;;;21.02;44.26;99707.72;10377360;28;20042;-67
2023/10/11 16:50:05;;;;;;;6.03;2.42;;;;;;;20.81;44.84;99699.34;10382822;28;20505;-67
2023/10/11 16:55:10;;;;;;;6.18;2.30;;;;;;;20.66;45.12;99706.28;10376340;28;20290;-66
2023/10/11 17:00:21;;;;;;;6.97;2.58;;;;;;;20.46;45.87;99712.00;10379713;28;20053;-66
2023/10/11 17:05:26;;;;;;;6.15;2.10;;;;;;;20.27;46.44;99710.41;10374688;28;20051;-67
2023/10/11 17:10:28;;;;;;;4.30;2.03;;;;;;;20.08;46.65;99710.63;10375854;28;20057;-67
2023/10/11 17:15:33;;;;;;;7.40;2.03;;;;;;;19.99;47.30;99711.59;10383380;28;20043;-68
2023/10/11 17:20:40;;;;;;;5.53;1.95;;;;;;;19.91;47.34;99709.69;10371255;28;20289;-68
2023/10/11 17:25:42;;;;;;;6.82;2.33;;;;;;;19.71;47.84;99713.50;10379019;28;20123;-67
2023/10/11 17:30:45;;;;;;;8.02;2.38;;;;;;;19.58;48.24;99713.09;10371660;28;20170;-66
2023/10/11 17:35:48;;;;;;;7.05;2.08;;;;;;;19.52;48.36;99721.69;10377249;28;20096;-67
2023/10/11 17:40:49;;;;;;;10.32;3.08;;;;;;;19.47;48.67;99718.63;10371425;28;20076;-67
2023/10/11 17:45:51;;;;;;;6.70;2.38;;;;;;;19.33;49.10;99708.56;10376675;28;20127;-67
2023/10/11 17:50:55;;;;;;;7.13;2.63;;;;;;;19.24;49.38;99710.31;10373352;28;20411;-67
2023/10/11 17:55:58;;;;;;;3.90;1.90;;;;;;;19.20;49.40;99713.41;10381565;28;20401;-67
2023/10/11 18:01:01;;;;;;;8.00;2.17;;;;;;;19.13;49.55;99712.38;10357425;28;20131;-67
2023/10/11 18:06:03;;;;;;;6.60;1.90;;;;;;;19.07;49.81;99718.28;10371689;28;20319;-67
2023/10/11 18:11:06;;;;;;;9.13;2.60;;;;;;;18.98;50.07;99714.66;10368082;28;20072;-66
2023/10/11 18:16:07;;;;;;;5.05;2.08;;;;;;;18.95;49.94;99712.31;10378668;28;20230;-67
2023/10/11 18:21:10;;;;;;;5.18;1.83;;;;;;;18.97;49.81;99717.47;10369279;28;20140;-67
2023/10/11 18:26:12;;;;;;;10.63;2.80;;;;;;;19.01;49.70;99711.69;10375062;28;20216;-62
2023/10/11 18:31:13;;;;;;;8.40;2.17;;;;;;;19.16;49.04;99717.34;10367565;28;20057;-63
2023/10/11 18:36:17;;;;;;;4.85;1.90;;;;;;;19.18;49.14;99715.38;10379776;28;20132;-63
2023/10/11 18:41:19;;;;;;;6.72;2.15;;;;;;;19.23;49.13;99707.81;10372399;28;20053;-63
2023/10/11 18:46:24;;;;;;;7.05;2.00;;;;;;;19.08;49.78;99710.16;10380523;28;20231;-63
2023/10/11 18:51:28;;;;;;;5.38;2.20;;;;;;;18.93;49.93;99703.66;10366511;28;20045;-63
2023/10/11 18:56:35;;;;;;;8.27;2.75;;;;;;;18.87;50.29;99700.81;10376464;28;20052;-63
2023/10/11 19:01:37;;;;;;;5.53;2.15;;;;;;;18.77;50.75;99690.25;10375743;28;20053;-63
2023/10/11 19:06:40;;;;;;;7.35;2.92;;;;;;;18.74;50.63;99690.56;10376612;28;20397;-64
2023/10/11 19:11:42;;;;;;;6.63;2.22;;;;;;;18.65;51.12;99678.19;10376598;28;20041;-64
2023/10/11 19:16:44;;;;;;;9.00;2.08;;;;;;;18.56;51.16;99677.28;10381710;28;20034;-63
2023/10/11 19:21:46;;;;;;;8.35;2.40;;;;;;;18.54;51.17;99673.13;10377567;28;20104;-64
2023/10/11 19:26:50;;;;;;;4.03;1.73;;;;;;;18.49;51.30;99667.44;10383832;28;20935;-64
2023/10/11 19:31:52;;;;;;;8.15;2.10;;;;;;;18.61;51.02;99676.81;10366188;28;20053;-64
2023/10/11 19:36:55;;;;;;;6.25;2.00;;;;;;;18.62;51.24;99673.22;10387370;28;20048;-64
2023/10/11 19:41:57;;;;;;;7.00;2.38;;;;;;;18.58;51.41;99669.19;10389291;28;20388;-63
2023/10/11 19:46:59;;;;;;;5.70;2.40;;;;;;;18.55;51.35;99665.03;10388497;28;20760;-64
2023/10/11 19:52:01;;;;;;;5.47;2.35;;;;;;;18.59;51.00;99673.50;10388423;28;20505;-63
2023/10/11 19:57:03;;;;;;;8.30;1.75;;;;;;;18.60;51.12;99667.22;10385613;28;20060;-63
2023/10/11 20:02:05;;;;;;;7.47;2.38;;;;;;;18.57;51.01;99678.94;10386365;28;20049;-64
2023/10/11 20:07:08;;;;;;;5.95;1.85;;;;;;;18.48;51.15;99679.00;10386890;28;20051;-64
2023/10/11 20:12:11;;;;;;;8.80;2.00;;;;;;;18.25;52.05;99675.06;10386309;28;20051;-63
2023/10/11 20:17:17;;;;;;;8.75;2.78;;;;;;;17.96;52.81;99669.03;10385288;28;20057;-64
2023/10/11 20:22:19;;;;;;;10.65;2.42;;;;;;;17.68;53.72;99666.34;10388229;28;20053;-64
2023/10/11 20:27:20;;;;;;;5.68;2.83;;;;;;;17.58;53.68;99662.88;10387205;28;20409;-64
2023/10/11 20:32:23;;;;;;;6.15;2.58;;;;;;;17.48;54.25;99663.88;10385531;28;20057;-64
2023/10/11 20:37:28;;;;;;;8.00;2.92;;;;;;;17.28;54.81;99667.50;10386861;28;20583;-64
2023/10/11 20:42:30;;;;;;;8.35;2.75;;;;;;;17.19;55.49;99676.25;10365935;28;20044;-64
2023/10/11 20:47:32;;;;;;;5.18;2.40;;;;;;;17.08;55.80;99664.00;10386245;28;20494;-64
2023/10/11 20:52:36;;;;;;;7.80;3.63;;;;;;;16.91;56.58;99668.19;10386137;28;20076;-64
2023/10/11 20:57:42;;;;;;;7.53;3.25;;;;;;;16.76;56.91;99661.63;10384557;28;20052;-64
2023/10/11 21:02:44;;;;;;;6.78;3.05;;;;;;;16.80;57.05;99673.59;10383366;28;20425;-64
2023/10/11 21:07:47;;;;;;;9.75;2.63;;;;;;;16.70;57.16;99674.53;10385043;28;20610;-64
2023/10/11 21:12:50;;;;;;;7.88;2.97;;;;;;;16.64;57.31;99662.72;10366506;28;20053;-64
2023/10/11 21:17:52;;;;;;;8.43;2.78;;;;;;;16.64;57.34;99653.97;10386091;28;20052;-64
2023/10/11 21:22:55;;;;;;;9.70;2.97;;;;;;;16.60;57.46;99652.56;10383249;28;20417;-65
2023/10/11 21:27:57;;;;;;;6.47;2.72;;;;;;;16.63;57.47;99645.19;10384886;28;20578;-64
2023/10/11 21:33:01;;;;;;;6.90;2.92;;;;;;;16.64;57.65;99643.41;10385083;28;20065;-65
2023/10/11 21:38:03;;;;;;;8.63;3.13;;;;;;;16.61;57.99;99639.22;10382376;28;20072;-63
2023/10/11 21:43:05;;;;;;;7.97;2.70;;;;;;;16.61;58.05;99638.41;10386185;28;20072;-65
2023/10/11 21:48:09;;;;;;;8.60;3.40;;;;;;;16.64;57.80;99648.69;10384766;28;20045;-65
2023/10/11 21:53:12;;;;;;;6.38;3.33;;;;;;;16.58;57.99;99650.06;10384327;28;20425;-65
2023/10/11 21:58:15;;;;;;;8.80;2.90;;;;;;;16.53;58.08;99641.72;10383717;28;20077;-62
2023/10/11 22:03:18;;;;;;;8.13;2.42;;;;;;;16.44;58.25;99631.13;10382659;28;20041;-65
2023/10/11 22:08:23;;;;;;;5.47;2.63;;;;;;;16.31;58.57;99626.06;10383872;28;20399;-62
2023/10/11 22:13:31;;;;;;;8.48;3.13;;;;;;;16.17;58.98;99637.84;10367139;28;20110;-65
2023/10/11 22:18:34;;;;;;;6.22;2.80;;;;;;;16.12;58.94;99644.50;10383128;28;20409;-65
2023/10/11 22:23:36;;;;;;;7.78;3.00;;;;;;;16.18;59.15;99650.06;10387296;28;20046;-65
2023/10/11 22:28:38;;;;;;;6.60;2.67;;;;;;;16.20;59.11;99650.75;10382401;28;20045;-65
2023/10/11 22:33:42;;;;;;;8.70;2.75;;;;;;;16.20;58.92;99649.94;10383638;28;20735;-65
2023/10/11 22:38:46;;;;;;;6.05;2.70;;;;;;;16.23;59.06;99650.50;10382340;28;20044;-62
2023/10/11 22:43:48;;;;;;;6.30;2.53;;;;;;;16.27;58.89;99660.78;10382711;28;20445;-65
2023/10/11 22:48:51;;;;;;;6.63;2.75;;;;;;;16.26;58.88;99652.03;10381316;28;20041;-64
2023/10/11 22:53:59;;;;;;;6.65;2.97;;;;;;;16.23;59.27;99645.22;10381615;28;20488;-64
2023/10/11 22:59:03;;;;;;;7.90;2.88;;;;;;;16.19;58.97;99638.53;10381602;28;20158;-64
2023/10/11 23:04:07;;;;;;;7.47;3.17;;;;;;;16.23;58.98;99639.94;10382077;28;20060;-64
2023/10/11 23:09:09;;;;;;;11.05;2.63;;;;;;;16.19;59.17;99651.75;10380272;28;20053;-64
2023/10/11 23:14:11;;;;;;;9.07;3.17;;;;;;;16.13;59.53;99654.91;10383121;28;20492;-64
2023/10/11 23:19:19;;;;;;;9.23;3.03;;;;;;;16.12;59.49;99642.69;10380915;28;20081;-65
2023/10/11 23:24:31;;;;;;;5.60;2.33;;;;;;;16.27;59.31;99629.09;10380745;28;20045;-64
2023/10/11 23:29:39;;;;;;;5.80;2.50;;;;;;;16.30;59.41;99618.28;10380907;28;20049;-64
2023/10/11 23:34:41;;;;;;;8.80;3.22;;;;;;;16.33;59.24;99618.00;10381290;28;20124;-64
2023/10/11 23:40:10;;;;;;;5.57;2.65;;;;;;;16.58;58.80;99617.53;10382275;28;20061;-64
2023/10/11 23:45:15;;;;;;;10.32;2.15;;;;;;;17.07;57.78;99617.44;10382877;28;20053;-64
2023/10/11 23:50:20;;;;;;;4.53;2.15;;;;;;;17.39;56.81;99628.53;10380331;28;20663;-64
2023/10/11 23:55:25;;;;;;;8.18;2.38;;;;;;;17.54;56.40;99624.47;10380908;28;20053;-64
